createdAt,value
2018-02-25T00:00:13.852Z,57.30
2018-02-25T00:01:53.278Z,56.90
2018-02-25T00:03:31.028Z,57.00
2018-02-25T00:05:08.804Z,57.20
2018-02-25T00:06:47.128Z,57.70
2018-02-25T00:08:25.631Z,58.00
2018-02-25T00:10:03.346Z,58.00
2018-02-25T00:11:41.098Z,57.90
2018-02-25T00:13:18.920Z,57.80
2018-02-25T00:14:57.066Z,57.80
2018-02-25T00:16:36.184Z,57.50
2018-02-25T00:18:14.841Z,57.60
2018-02-25T00:19:52.718Z,57.60
2018-02-25T00:21:31.646Z,57.70
2018-02-25T00:23:09.625Z,57.30
2018-02-25T00:24:47.604Z,56.90
2018-02-25T00:26:26.293Z,56.60
2018-02-25T00:28:04.590Z,56.60
2018-02-25T00:29:42.399Z,56.60
2018-02-25T00:31:20.624Z,56.60
2018-02-25T00:32:58.352Z,56.10
2018-02-25T00:34:37.288Z,56.30
2018-02-25T00:36:15.830Z,56.50
2018-02-25T00:37:53.947Z,56.50
2018-02-25T00:39:31.900Z,56.60
2018-02-25T00:41:11.389Z,56.90
2018-02-25T00:42:49.180Z,57.00
2018-02-25T00:44:27.149Z,56.50
2018-02-25T00:46:06.235Z,56.00
2018-02-25T00:47:44.785Z,55.30
2018-02-25T00:49:23.467Z,55.20
2018-02-25T00:51:02.824Z,56.20
2018-02-25T00:52:40.721Z,56.10
2018-02-25T00:54:18.760Z,56.80
2018-02-25T00:55:56.806Z,57.00
2018-02-25T00:57:34.572Z,57.20
2018-02-25T00:59:12.643Z,57.40
2018-02-25T01:00:51.454Z,57.40
2018-02-25T01:02:30.686Z,58.00
2018-02-25T01:04:09.005Z,58.00
2018-02-25T01:05:47.744Z,57.30
2018-02-25T01:07:26.904Z,57.30
2018-02-25T01:09:05.419Z,57.70
2018-02-25T01:10:43.566Z,57.10
2018-02-25T01:12:21.468Z,57.70
2018-02-25T01:14:00.480Z,58.40
2018-02-25T01:15:39.003Z,58.30
2018-02-25T01:17:17.262Z,59.20
2018-02-25T01:18:56.252Z,59.00
2018-02-25T01:20:35.909Z,59.40
2018-02-25T01:22:13.905Z,58.80
2018-02-25T01:23:52.252Z,59.20
2018-02-25T01:25:30.355Z,58.80
2018-02-25T01:27:08.221Z,57.90
2018-02-25T01:28:46.212Z,58.10
2018-02-25T01:30:26.776Z,58.60
2018-02-25T01:32:05.036Z,57.50
2018-02-25T01:33:44.156Z,58.20
2018-02-25T01:35:25.428Z,58.40
2018-02-25T01:37:03.760Z,57.10
2018-02-25T01:38:41.953Z,58.00
2018-02-25T01:40:20.319Z,58.10
2018-02-25T01:43:38.241Z,58.20
2018-02-25T01:45:17.834Z,58.70
2018-02-25T01:46:56.716Z,59.00
2018-02-25T01:48:35.806Z,58.80
2018-02-25T01:50:14.755Z,59.50
2018-02-25T01:51:52.958Z,59.70
2018-02-25T01:53:31.187Z,59.20
2018-02-25T01:55:09.920Z,59.10
2018-02-25T01:56:48.131Z,58.50
2018-02-25T01:58:27.374Z,58.80
2018-02-25T02:00:06.351Z,58.50
2018-02-25T02:01:46.083Z,58.40
2018-02-25T02:03:24.979Z,59.00
2018-02-25T02:05:03.461Z,58.90
2018-02-25T02:06:44.955Z,58.50
2018-02-25T02:08:23.739Z,58.40
2018-02-25T02:10:02.182Z,59.10
2018-02-25T02:11:40.224Z,59.70
2018-02-25T02:13:18.556Z,60.40
2018-02-25T02:14:58.140Z,60.30
2018-02-25T02:16:36.969Z,60.30
2018-02-25T02:18:16.156Z,60.40
2018-02-25T02:19:54.842Z,60.40
2018-02-25T02:21:33.234Z,60.50
2018-02-25T02:23:11.624Z,59.60
2018-02-25T02:24:50.053Z,59.30
2018-02-25T02:26:28.676Z,58.40
2018-02-25T02:28:07.064Z,59.00
2018-02-25T02:29:46.716Z,59.30
2018-02-25T02:31:25.099Z,59.30
2018-02-25T02:33:03.332Z,59.20
2018-02-25T02:34:41.922Z,60.00
2018-02-25T02:36:21.280Z,61.30
2018-02-25T02:37:59.925Z,61.40
2018-02-25T02:39:38.119Z,61.30
2018-02-25T02:41:17.367Z,62.10
2018-02-25T02:42:56.491Z,61.80
2018-02-25T02:44:35.894Z,62.10
2018-02-25T02:46:15.190Z,62.70
2018-02-25T02:47:53.946Z,62.60
2018-02-25T02:49:32.985Z,62.70
2018-02-25T02:51:11.771Z,63.20
2018-02-25T02:52:50.205Z,63.60
2018-02-25T02:54:28.311Z,64.20
2018-02-25T02:56:06.999Z,64.70
2018-02-25T02:57:45.455Z,64.10
2018-02-25T02:59:23.807Z,63.70
2018-02-25T03:01:02.110Z,64.70
2018-02-25T03:02:41.348Z,65.00
2018-02-25T03:04:19.668Z,65.10
2018-02-25T03:05:58.143Z,65.60
2018-02-25T03:07:36.601Z,65.60
2018-02-25T03:09:14.773Z,65.90
2018-02-25T03:10:52.905Z,66.10
2018-02-25T03:12:31.941Z,66.30
2018-02-25T03:14:10.104Z,66.00
2018-02-25T03:15:48.818Z,66.40
2018-02-25T03:17:27.184Z,66.80
2018-02-25T03:19:05.513Z,66.90
2018-02-25T03:20:43.539Z,66.50
2018-02-25T03:22:21.291Z,65.40
2018-02-25T03:23:59.313Z,65.60
2018-02-25T03:25:37.143Z,65.80
2018-02-25T03:27:15.658Z,66.50
2018-02-25T03:28:53.765Z,67.00
2018-02-25T03:30:31.765Z,66.00
2018-02-25T03:32:11.048Z,64.70
2018-02-25T03:33:50.067Z,64.50
2018-02-25T03:35:27.881Z,64.40
2018-02-25T03:37:05.818Z,65.40
2018-02-25T03:38:43.814Z,65.60
2018-02-25T03:40:21.603Z,66.80
2018-02-25T03:41:59.633Z,67.70
2018-02-25T03:43:39.075Z,68.10
2018-02-25T03:45:18.530Z,68.00
2018-02-25T03:46:56.854Z,68.60
2018-02-25T03:48:35.717Z,68.30
2018-02-25T03:50:14.174Z,68.20
2018-02-25T03:51:53.398Z,69.50
2018-02-25T03:53:31.728Z,70.30
2018-02-25T03:55:09.908Z,70.30
2018-02-25T03:56:48.186Z,70.30
2018-02-25T03:58:25.973Z,69.70
2018-02-25T04:00:04.991Z,70.00
2018-02-25T04:01:43.404Z,70.00
2018-02-25T04:03:22.096Z,69.10
2018-02-25T04:04:59.947Z,69.10
2018-02-25T04:06:38.236Z,69.10
2018-02-25T04:08:15.990Z,69.40
2018-02-25T04:09:53.800Z,70.00
2018-02-25T04:11:31.574Z,70.30
2018-02-25T04:13:10.517Z,70.30
2018-02-25T04:14:48.376Z,71.00
2018-02-25T04:16:26.615Z,70.80
2018-02-25T04:18:04.706Z,70.50
2018-02-25T04:19:43.155Z,69.10
2018-02-25T04:21:20.456Z,69.10
2018-02-25T04:22:58.189Z,69.60
2018-02-25T04:24:36.406Z,69.30
2018-02-25T04:26:15.660Z,69.20
2018-02-25T04:27:54.431Z,69.80
2018-02-25T04:29:32.702Z,69.90
2018-02-25T04:31:10.412Z,69.80
2018-02-25T04:32:47.675Z,69.40
2018-02-25T04:34:25.212Z,69.30
2018-02-25T04:36:02.568Z,69.30
2018-02-25T04:37:40.807Z,69.50
2018-02-25T04:39:18.253Z,69.40
2018-02-25T04:40:55.735Z,69.50
2018-02-25T04:42:33.773Z,70.40
2018-02-25T04:44:11.093Z,70.40
2018-02-25T04:45:48.716Z,69.90
2018-02-25T04:47:26.290Z,69.60
2018-02-25T04:49:03.590Z,69.70
2018-02-25T04:50:41.468Z,70.20
2018-02-25T04:52:19.259Z,69.80
2018-02-25T04:53:57.180Z,69.20
2018-02-25T04:55:35.308Z,68.80
2018-02-25T04:57:12.628Z,68.80
2018-02-25T04:58:50.637Z,68.30
2018-02-25T05:00:30.028Z,68.60
2018-02-25T05:02:08.522Z,69.10
2018-02-25T05:03:45.904Z,68.50
2018-02-25T05:05:23.331Z,68.80
2018-02-25T05:07:01.140Z,69.10
2018-02-25T05:08:38.765Z,68.80
2018-02-25T05:10:16.644Z,68.30
2018-02-25T05:11:54.197Z,67.00
2018-02-25T05:13:33.101Z,67.40
2018-02-25T05:15:10.863Z,68.00
2018-02-25T05:16:48.663Z,68.10
2018-02-25T05:18:26.123Z,68.50
2018-02-25T05:20:04.160Z,68.70
2018-02-25T05:21:42.622Z,69.10
2018-02-25T05:23:20.242Z,69.10
2018-02-25T05:24:57.732Z,69.10
2018-02-25T05:26:35.326Z,69.30
2018-02-25T05:28:13.833Z,69.20
2018-02-25T05:29:52.066Z,68.70
2018-02-25T05:31:30.588Z,68.60
2018-02-25T05:33:08.274Z,68.40
2018-02-25T05:34:46.303Z,67.00
2018-02-25T05:36:23.574Z,67.00
2018-02-25T05:38:01.043Z,67.70
2018-02-25T05:39:39.213Z,67.80
2018-02-25T05:41:16.900Z,68.40
2018-02-25T05:42:54.320Z,69.30
2018-02-25T05:44:32.286Z,69.80
2018-02-25T05:46:09.844Z,69.80
2018-02-25T05:47:48.031Z,70.10
2018-02-25T05:49:26.631Z,68.70
2018-02-25T05:51:04.998Z,68.60
2018-02-25T05:52:43.552Z,69.90
2018-02-25T05:54:22.279Z,69.90
2018-02-25T05:56:00.174Z,70.30
2018-02-25T05:57:37.913Z,70.30
2018-02-25T05:59:15.947Z,70.60
2018-02-25T06:00:54.165Z,71.00
2018-02-25T06:02:31.792Z,70.90
2018-02-25T06:04:09.176Z,70.80
2018-02-25T06:05:46.568Z,70.70
2018-02-25T06:07:23.945Z,70.80
2018-02-25T06:09:01.969Z,70.60
2018-02-25T06:10:39.668Z,70.50
2018-02-25T06:12:17.480Z,70.30
2018-02-25T06:13:56.861Z,69.20
2018-02-25T06:15:35.098Z,69.10
2018-02-25T06:17:13.445Z,69.00
2018-02-25T06:18:51.429Z,68.80
2018-02-25T06:20:29.837Z,69.00
2018-02-25T06:22:08.216Z,69.20
2018-02-25T06:23:46.537Z,68.80
2018-02-25T06:25:24.571Z,68.20
2018-02-25T06:27:02.797Z,67.10
2018-02-25T06:28:40.567Z,65.90
2018-02-25T06:30:21.159Z,64.40
2018-02-25T06:32:01.257Z,64.50
2018-02-25T06:33:39.410Z,65.90
2018-02-25T06:35:17.823Z,66.80
2018-02-25T06:36:56.749Z,66.30
2018-02-25T06:38:36.948Z,66.60
2018-02-25T06:40:15.194Z,66.80
2018-02-25T06:41:53.480Z,66.30
2018-02-25T06:43:31.994Z,65.60
2018-02-25T06:45:10.956Z,64.70
2018-02-25T06:46:49.515Z,64.00
2018-02-25T06:48:27.643Z,63.70
2018-02-25T06:50:05.876Z,64.00
2018-02-25T06:51:44.730Z,63.50
2018-02-25T06:53:24.039Z,62.80
2018-02-25T06:55:02.620Z,62.80
2018-02-25T06:56:41.863Z,62.20
2018-02-25T06:58:21.963Z,61.70
2018-02-25T07:00:01.404Z,59.30
2018-02-25T07:01:40.796Z,59.30
2018-02-25T07:03:18.909Z,58.40
2018-02-25T07:04:57.926Z,58.80
2018-02-25T07:06:36.102Z,57.70
2018-02-25T07:08:15.204Z,57.10
2018-02-25T07:09:53.813Z,57.10
2018-02-25T07:11:33.560Z,57.40
2018-02-25T07:13:12.018Z,57.40
2018-02-25T07:14:50.103Z,58.60
2018-02-25T07:16:28.845Z,59.10
2018-02-25T07:18:07.333Z,58.80
2018-02-25T07:19:46.773Z,58.60
2018-02-25T07:21:24.770Z,58.70
2018-02-25T07:23:02.838Z,58.70
2018-02-25T07:24:41.538Z,58.90
2018-02-25T07:26:20.299Z,59.20
2018-02-25T07:27:58.993Z,59.10
2018-02-25T07:29:37.126Z,58.90
2018-02-25T07:31:15.605Z,59.00
2018-02-25T07:32:53.502Z,58.30
2018-02-25T07:34:33.552Z,56.80
2018-02-25T07:36:12.027Z,57.30
2018-02-25T07:37:49.987Z,56.10
2018-02-25T07:39:28.927Z,56.70
2018-02-25T07:41:06.874Z,56.60
2018-02-25T07:42:45.973Z,56.80
2018-02-25T07:44:23.890Z,57.10
2018-02-25T07:46:02.168Z,57.20
2018-02-25T07:47:42.451Z,56.70
2018-02-25T07:49:24.324Z,57.00
2018-02-25T07:51:02.387Z,57.50
2018-02-25T07:52:40.321Z,57.60
2018-02-25T07:54:18.277Z,57.50
2018-02-25T07:55:55.992Z,57.40
2018-02-25T07:57:35.091Z,57.10
2018-02-25T07:59:13.332Z,57.80
2018-02-25T08:00:52.606Z,58.50
2018-02-25T08:02:32.100Z,58.50
2018-02-25T08:04:10.759Z,57.50
2018-02-25T08:05:49.448Z,56.00
2018-02-25T08:07:29.176Z,57.90
2018-02-25T08:09:07.415Z,58.00
2018-02-25T08:10:45.206Z,59.60
2018-02-25T08:12:23.055Z,60.60
2018-02-25T08:14:01.317Z,62.40
2018-02-25T08:15:39.533Z,62.50
2018-02-25T08:17:18.098Z,62.30
2018-02-25T08:18:56.347Z,62.30
2018-02-25T08:20:34.787Z,61.70
2018-02-25T08:22:13.095Z,62.90
2018-02-25T08:23:51.971Z,62.40
2018-02-25T08:25:30.141Z,62.30
2018-02-25T08:27:08.581Z,60.00
2018-02-25T08:28:46.679Z,59.90
2018-02-25T08:30:26.397Z,60.40
2018-02-25T08:32:04.572Z,60.70
2018-02-25T08:33:42.554Z,60.80
2018-02-25T08:35:20.564Z,60.70
2018-02-25T08:36:59.075Z,60.00
2018-02-25T08:38:37.087Z,59.30
2018-02-25T08:40:15.765Z,59.00
2018-02-25T08:41:53.665Z,59.20
2018-02-25T08:43:32.325Z,57.70
2018-02-25T08:45:10.370Z,58.90
2018-02-25T08:46:48.511Z,57.90
2018-02-25T08:48:26.417Z,57.10
2018-02-25T08:50:04.316Z,58.00
2018-02-25T08:51:42.561Z,57.70
2018-02-25T08:53:20.697Z,57.00
2018-02-25T08:54:59.588Z,56.70
2018-02-25T08:56:37.725Z,56.10
2018-02-25T08:58:21.109Z,55.00
2018-02-25T09:00:01.087Z,53.00
2018-02-25T09:01:39.447Z,52.80
2018-02-25T09:03:17.835Z,53.60
2018-02-25T09:04:56.310Z,52.20
2018-02-25T09:06:33.993Z,52.20
2018-02-25T09:08:12.357Z,51.60
2018-02-25T09:09:51.880Z,51.80
2018-02-25T09:11:29.720Z,51.80
2018-02-25T09:13:07.401Z,52.40
2018-02-25T09:14:45.166Z,52.50
2018-02-25T09:16:25.286Z,52.70
2018-02-25T09:18:03.029Z,52.60
2018-02-25T09:19:41.148Z,53.10
2018-02-25T09:21:18.948Z,52.80
2018-02-25T09:22:58.915Z,52.60
2018-02-25T09:24:37.845Z,51.60
2018-02-25T09:26:15.651Z,51.60
2018-02-25T09:27:54.489Z,51.00
2018-02-25T09:29:33.686Z,50.00
2018-02-25T09:31:11.647Z,50.00
2018-02-25T09:32:49.939Z,51.50
2018-02-25T09:34:27.809Z,49.10
2018-02-25T09:36:06.710Z,49.30
2018-02-25T09:37:44.761Z,49.30
2018-02-25T09:39:22.528Z,49.80
2018-02-25T09:41:00.272Z,49.30
2018-02-25T09:42:38.205Z,49.50
2018-02-25T09:44:16.212Z,49.30
2018-02-25T09:45:55.513Z,49.10
2018-02-25T09:47:34.304Z,47.80
2018-02-25T09:49:12.461Z,47.80
2018-02-25T09:50:50.668Z,47.10
2018-02-25T09:52:28.281Z,47.30
2018-02-25T09:54:06.375Z,46.10
2018-02-25T09:55:44.316Z,44.70
2018-02-25T09:57:22.348Z,44.10
2018-02-25T09:59:00.158Z,44.20
2018-02-25T10:00:39.523Z,44.10
2018-02-25T10:02:17.917Z,44.40
2018-02-25T10:03:55.715Z,44.10
2018-02-25T10:05:33.887Z,43.90
2018-02-25T10:07:12.265Z,44.60
2018-02-25T10:08:50.226Z,44.90
2018-02-25T10:10:28.851Z,44.80
2018-02-25T10:12:06.428Z,44.80
2018-02-25T10:13:45.549Z,43.60
2018-02-25T10:15:25.096Z,42.70
2018-02-25T10:17:03.406Z,42.30
2018-02-25T10:18:41.207Z,43.40
2018-02-25T10:20:19.485Z,44.90
2018-02-25T10:21:57.443Z,44.80
2018-02-25T10:23:35.200Z,43.90
2018-02-25T10:25:12.811Z,44.10
2018-02-25T10:26:50.771Z,45.60
2018-02-25T10:28:28.289Z,45.10
2018-02-25T10:30:05.930Z,42.60
2018-02-25T10:31:44.230Z,41.30
2018-02-25T10:33:21.942Z,42.80
2018-02-25T10:34:59.697Z,43.10
2018-02-25T10:36:38.842Z,44.80
2018-02-25T10:38:17.020Z,44.80
2018-02-25T10:39:54.663Z,44.20
2018-02-25T10:41:33.761Z,43.70
2018-02-25T10:43:11.865Z,43.60
2018-02-25T10:44:49.846Z,42.00
2018-02-25T10:46:27.934Z,41.40
2018-02-25T10:48:06.168Z,41.20
2018-02-25T10:49:44.011Z,41.50
2018-02-25T10:51:22.087Z,41.20
2018-02-25T10:53:00.867Z,41.60
2018-02-25T10:54:38.879Z,41.50
2018-02-25T10:56:17.116Z,40.80
2018-02-25T10:57:55.207Z,39.80
2018-02-25T10:59:34.244Z,40.30
2018-02-25T11:01:12.055Z,41.30
2018-02-25T11:02:50.502Z,41.70
2018-02-25T11:04:28.209Z,40.10
2018-02-25T11:06:06.014Z,40.90
2018-02-25T11:07:43.703Z,40.80
2018-02-25T11:09:21.906Z,40.60
2018-02-25T11:10:59.670Z,39.90
2018-02-25T11:12:37.369Z,39.80
2018-02-25T11:14:15.125Z,40.60
2018-02-25T11:15:54.471Z,41.00
2018-02-25T11:17:32.123Z,41.00
2018-02-25T11:19:09.753Z,42.00
2018-02-25T11:20:48.601Z,41.20
2018-02-25T11:22:27.742Z,41.00
2018-02-25T11:24:05.280Z,40.60
2018-02-25T11:27:24.026Z,38.80
2018-02-25T11:29:10.589Z,38.20
2018-02-25T11:30:49.170Z,38.20
2018-02-25T11:32:26.810Z,38.60
2018-02-25T11:34:05.591Z,38.70
2018-02-25T11:35:43.554Z,38.20
2018-02-25T11:37:21.386Z,38.10
2018-02-25T11:38:59.912Z,38.00
2018-02-25T11:40:37.805Z,38.60
2018-02-25T11:42:15.906Z,39.00
2018-02-25T11:43:54.243Z,38.70
2018-02-25T11:45:32.319Z,38.70
2018-02-25T11:47:10.797Z,37.20
2018-02-25T11:48:48.811Z,37.10
2018-02-25T11:50:26.315Z,36.90
2018-02-25T11:52:04.638Z,36.70
2018-02-25T11:53:42.453Z,36.60
2018-02-25T11:55:20.467Z,36.10
2018-02-25T11:56:58.053Z,36.30
2018-02-25T11:58:36.654Z,37.20
2018-02-25T12:00:17.130Z,36.30
2018-02-25T12:01:55.984Z,37.00
2018-02-25T12:03:34.519Z,38.30
2018-02-25T12:05:12.148Z,38.30
2018-02-25T12:06:50.416Z,39.60
2018-02-25T12:08:28.587Z,39.60
2018-02-25T12:10:06.896Z,38.60
2018-02-25T12:11:44.587Z,39.10
2018-02-25T12:13:22.146Z,39.20
2018-02-25T12:15:00.880Z,36.70
2018-02-25T12:16:39.423Z,36.70
2018-02-25T12:18:17.367Z,38.80
2018-02-25T12:19:56.796Z,39.00
2018-02-25T12:21:34.632Z,38.90
2018-02-25T12:23:12.349Z,39.10
2018-02-25T12:24:50.967Z,39.90
2018-02-25T12:26:28.794Z,40.10
2018-02-25T12:28:07.103Z,41.60
2018-02-25T12:29:44.843Z,41.20
2018-02-25T12:31:23.114Z,40.60
2018-02-25T12:33:01.580Z,38.80
2018-02-25T12:34:39.857Z,38.80
2018-02-25T12:36:17.575Z,38.90
2018-02-25T12:37:56.125Z,39.40
2018-02-25T12:39:34.637Z,38.40
2018-02-25T12:41:12.925Z,38.00
2018-02-25T12:42:52.457Z,39.60
2018-02-25T12:44:30.230Z,39.50
2018-02-25T12:46:09.207Z,39.70
2018-02-25T12:47:47.327Z,39.30
2018-02-25T12:49:26.336Z,39.10
2018-02-25T12:51:03.976Z,39.10
2018-02-25T12:52:41.514Z,40.20
2018-02-25T12:54:20.387Z,39.50
2018-02-25T12:55:59.655Z,39.50
2018-02-25T12:57:37.414Z,39.40
2018-02-25T12:59:14.913Z,38.30
2018-02-25T13:00:53.705Z,38.30
2018-02-25T13:02:32.678Z,38.50
2018-02-25T13:04:10.402Z,39.10
2018-02-25T13:05:48.165Z,39.60
2018-02-25T13:07:26.920Z,38.20
2018-02-25T13:09:05.796Z,38.10
2018-02-25T13:10:43.858Z,37.80
2018-02-25T13:12:23.680Z,38.80
2018-02-25T13:14:02.050Z,38.90
2018-02-25T13:15:40.373Z,38.10
2018-02-25T13:17:18.088Z,38.30
2018-02-25T13:18:56.003Z,37.70
2018-02-25T13:20:33.945Z,39.00
2018-02-25T13:22:11.810Z,38.00
2018-02-25T13:23:49.718Z,37.00
2018-02-25T13:25:27.389Z,35.80
2018-02-25T13:27:05.506Z,35.60
2018-02-25T13:28:43.221Z,35.40
2018-02-25T13:30:21.454Z,36.50
2018-02-25T13:32:00.727Z,36.30
2018-02-25T13:33:39.021Z,36.30
2018-02-25T13:35:16.634Z,37.70
2018-02-25T13:36:54.368Z,36.60
2018-02-25T13:38:32.100Z,36.70
2018-02-25T13:40:10.134Z,35.90
2018-02-25T13:41:48.374Z,34.90
2018-02-25T13:43:26.807Z,35.10
2018-02-25T13:45:05.301Z,34.90
2018-02-25T13:46:44.757Z,36.00
2018-02-25T13:48:23.312Z,36.80
2018-02-25T13:50:02.868Z,36.70
2018-02-25T13:51:40.875Z,36.70
2018-02-25T13:53:20.937Z,35.50
2018-02-25T13:54:59.497Z,35.40
2018-02-25T13:56:37.856Z,34.50
2018-02-25T13:58:18.779Z,34.50
2018-02-25T13:59:57.018Z,35.10
2018-02-25T14:01:35.451Z,35.20
2018-02-25T14:03:14.528Z,35.70
2018-02-25T14:04:52.483Z,35.80
2018-02-25T14:06:30.729Z,35.60
2018-02-25T14:08:08.297Z,34.70
2018-02-25T14:09:45.956Z,35.30
2018-02-25T14:11:24.077Z,35.90
2018-02-25T14:13:02.324Z,36.20
2018-02-25T14:14:40.555Z,35.70
2018-02-25T14:16:18.781Z,35.50
2018-02-25T14:17:56.669Z,34.60
2018-02-25T14:19:34.931Z,34.90
2018-02-25T14:21:13.409Z,34.10
2018-02-25T14:22:52.501Z,33.90
2018-02-25T14:24:30.312Z,33.90
2018-02-25T14:26:09.184Z,34.20
2018-02-25T14:27:46.898Z,34.70
2018-02-25T14:29:24.552Z,34.10
2018-02-25T14:31:02.424Z,33.90
2018-02-25T14:32:40.351Z,33.40
2018-02-25T14:34:18.038Z,34.10
2018-02-25T14:35:55.782Z,33.90
2018-02-25T14:37:33.956Z,32.90
2018-02-25T14:39:12.437Z,32.90
2018-02-25T14:40:50.083Z,33.30
2018-02-25T14:42:27.751Z,32.90
2018-02-25T14:44:05.833Z,33.40
2018-02-25T14:45:45.168Z,34.30
2018-02-25T14:47:22.888Z,34.50
2018-02-25T14:49:00.288Z,35.00
2018-02-25T14:50:37.902Z,33.60
2018-02-25T14:52:16.816Z,32.60
2018-02-25T14:53:54.521Z,33.10
2018-02-25T14:55:32.078Z,33.10
2018-02-25T14:57:12.019Z,34.50
2018-02-25T14:58:50.458Z,34.40
2018-02-25T15:00:41.947Z,33.60
2018-02-25T15:02:23.093Z,33.90
2018-02-25T15:04:02.322Z,34.60
2018-02-25T15:05:40.306Z,34.20
2018-02-25T15:07:17.808Z,33.50
2018-02-25T15:08:55.961Z,33.80
2018-02-25T15:10:34.020Z,34.00
2018-02-25T15:12:11.508Z,33.50
2018-02-25T15:13:49.237Z,34.10
2018-02-25T15:15:30.075Z,33.90
2018-02-25T15:17:09.476Z,33.10
2018-02-25T15:18:47.333Z,33.00
2018-02-25T15:20:25.764Z,34.60
2018-02-25T15:22:04.274Z,34.00
2018-02-25T15:23:42.691Z,34.00
2018-02-25T15:25:20.611Z,33.70
2018-02-25T15:26:58.337Z,33.10
2018-02-25T15:28:36.298Z,34.00
2018-02-25T15:30:16.073Z,34.30
2018-02-25T15:31:54.338Z,33.20
2018-02-25T15:33:31.978Z,33.20
2018-02-25T15:35:09.541Z,33.20
2018-02-25T15:36:47.488Z,33.50
2018-02-25T15:38:25.956Z,33.20
2018-02-25T15:40:03.462Z,33.20
2018-02-25T15:41:42.609Z,32.70
2018-02-25T15:43:20.091Z,32.70
2018-02-25T15:44:57.518Z,33.10
2018-02-25T15:46:36.419Z,34.10
2018-02-25T15:48:14.698Z,34.00
2018-02-25T15:49:52.297Z,34.80
2018-02-25T15:51:31.639Z,35.70
2018-02-25T15:53:09.582Z,35.00
2018-02-25T15:54:47.551Z,33.00
2018-02-25T15:56:25.131Z,32.70
2018-02-25T15:58:02.940Z,33.30
2018-02-25T15:59:41.839Z,33.10
2018-02-25T16:01:19.981Z,33.10
2018-02-25T16:02:58.381Z,33.00
2018-02-25T16:04:36.765Z,33.20
2018-02-25T16:06:14.915Z,33.20
2018-02-25T16:07:52.814Z,33.20
2018-02-25T16:09:30.259Z,33.60
2018-02-25T16:11:07.866Z,33.10
2018-02-25T16:12:45.364Z,32.70
2018-02-25T16:14:24.168Z,33.80
2018-02-25T16:16:02.162Z,33.80
2018-02-25T16:17:39.609Z,34.10
2018-02-25T16:19:17.040Z,33.80
2018-02-25T16:20:55.318Z,34.50
2018-02-25T16:22:32.952Z,34.50
2018-02-25T16:24:10.758Z,34.40
2018-02-25T16:25:49.058Z,33.90
2018-02-25T16:27:27.883Z,33.50
2018-02-25T16:29:05.589Z,33.60
2018-02-25T16:30:43.647Z,33.00
2018-02-25T16:33:58.839Z,34.00
2018-02-25T16:35:38.133Z,35.50
2018-02-25T16:37:15.914Z,35.50
2018-02-25T16:38:53.722Z,35.40
2018-02-25T16:40:31.951Z,35.60
2018-02-25T16:42:10.464Z,36.40
2018-02-25T16:43:48.104Z,36.00
2018-02-25T16:45:28.422Z,36.40
2018-02-25T16:47:06.479Z,36.60
2018-02-25T16:48:44.061Z,35.90
2018-02-25T16:50:22.736Z,36.10
2018-02-25T16:52:00.355Z,36.80
2018-02-25T16:53:38.519Z,37.10
2018-02-25T16:55:16.837Z,37.10
2018-02-25T16:56:54.350Z,37.60
2018-02-25T16:58:31.954Z,37.70
2018-02-25T17:00:12.991Z,38.10
2018-02-25T17:01:52.735Z,38.00
2018-02-25T17:03:30.627Z,39.00
2018-02-25T17:05:11.934Z,38.80
2018-02-25T17:06:50.473Z,38.60
2018-02-25T17:08:29.168Z,38.60
2018-02-25T17:10:06.986Z,38.70
2018-02-25T17:11:45.679Z,38.70
2018-02-25T17:13:24.637Z,38.90
2018-02-25T17:15:02.848Z,38.90
2018-02-25T17:16:41.048Z,38.80
2018-02-25T17:18:18.844Z,39.20
2018-02-25T17:19:57.018Z,39.70
2018-02-25T17:21:34.824Z,39.60
2018-02-25T17:23:13.858Z,39.80
2018-02-25T17:24:51.596Z,39.80
2018-02-25T17:26:30.118Z,40.20
2018-02-25T17:28:08.631Z,39.80
2018-02-25T17:29:46.503Z,40.40
2018-02-25T17:31:25.552Z,40.70
2018-02-25T17:33:03.223Z,40.50
2018-02-25T17:34:40.725Z,40.80
2018-02-25T17:36:18.397Z,41.30
2018-02-25T17:37:56.863Z,40.70
2018-02-25T17:39:34.995Z,40.70
2018-02-25T17:41:12.663Z,40.30
2018-02-25T17:42:50.824Z,39.80
2018-02-25T17:44:29.427Z,40.80
2018-02-25T17:46:09.271Z,40.90
2018-02-25T17:47:47.620Z,40.50
2018-02-25T17:49:25.215Z,40.50
2018-02-25T17:51:02.999Z,40.20
2018-02-25T17:52:41.046Z,40.60
2018-02-25T17:56:03.973Z,40.50
2018-02-25T17:57:41.433Z,40.40
2018-02-25T17:59:19.866Z,41.20
2018-02-25T18:00:58.146Z,41.30
2018-02-25T18:02:36.115Z,41.60
2018-02-25T18:04:14.027Z,41.90
2018-02-25T18:05:53.036Z,41.90
2018-02-25T18:07:31.299Z,42.20
2018-02-25T18:09:08.876Z,42.50
2018-02-25T18:10:46.470Z,43.30
2018-02-25T18:12:24.688Z,43.70
2018-02-25T18:14:02.535Z,44.30
2018-02-25T18:15:40.779Z,43.90
2018-02-25T18:17:18.662Z,44.50
2018-02-25T18:18:57.104Z,44.90
2018-02-25T18:20:34.810Z,44.80
2018-02-25T18:22:12.459Z,44.90
2018-02-25T18:23:50.631Z,44.90
2018-02-25T18:25:28.418Z,44.60
2018-02-25T18:27:06.272Z,44.40
2018-02-25T18:28:44.005Z,45.30
2018-02-25T18:30:22.435Z,45.30
2018-02-25T18:32:02.283Z,45.30
2018-02-25T18:33:40.483Z,45.30
2018-02-25T18:35:18.535Z,45.80
2018-02-25T18:36:57.051Z,45.90
2018-02-25T18:38:34.859Z,46.20
2018-02-25T18:40:12.491Z,46.30
2018-02-25T18:41:50.138Z,46.60
2018-02-25T18:43:29.102Z,47.40
2018-02-25T18:45:06.619Z,47.50
2018-02-25T18:46:44.983Z,47.40
2018-02-25T18:48:22.727Z,47.70
2018-02-25T18:50:00.972Z,47.70
2018-02-25T18:51:39.272Z,48.60
2018-02-25T18:53:16.898Z,48.50
2018-02-25T18:54:54.429Z,48.90
2018-02-25T18:56:33.716Z,49.20
2018-02-25T18:58:12.235Z,49.80
2018-02-25T18:59:50.553Z,50.10
2018-02-25T19:01:28.670Z,50.00
2018-02-25T19:03:06.210Z,50.60
2018-02-25T19:04:44.289Z,50.40
2018-02-25T19:06:21.861Z,50.80
2018-02-25T19:07:59.346Z,51.50
2018-02-25T19:09:37.484Z,51.30
2018-02-25T19:11:15.414Z,52.10
2018-02-25T19:12:53.283Z,53.10
2018-02-25T19:14:31.063Z,53.90
2018-02-25T19:16:10.712Z,54.20
2018-02-25T19:17:48.460Z,54.60
2018-02-25T19:19:27.266Z,55.50
2018-02-25T19:21:04.846Z,57.00
2018-02-25T19:22:44.049Z,57.70
2018-02-25T19:24:21.545Z,58.20
2018-02-25T19:25:59.008Z,58.80
2018-02-25T19:27:38.117Z,60.40
2018-02-25T19:29:16.932Z,61.20
2018-02-25T19:30:54.634Z,61.10
2018-02-25T19:32:33.322Z,60.80
2018-02-25T19:34:11.043Z,61.30
2018-02-25T19:35:53.215Z,63.20
2018-02-25T19:39:36.705Z,64.20
2018-02-25T19:41:18.705Z,64.70
2018-02-25T19:42:56.408Z,66.40
2018-02-25T19:44:34.545Z,66.60
2018-02-25T19:46:12.275Z,67.40
2018-02-25T19:47:49.838Z,68.30
2018-02-25T19:49:27.644Z,68.30
2018-02-25T19:51:05.486Z,68.40
2018-02-25T19:52:44.428Z,69.10
2018-02-25T19:54:22.271Z,68.90
2018-02-25T19:56:00.132Z,68.50
2018-02-25T19:57:38.594Z,68.10
2018-02-25T19:59:17.100Z,68.00
2018-02-25T20:00:55.952Z,68.70
2018-02-25T20:02:33.527Z,68.60
2018-02-25T20:04:11.189Z,69.50
2018-02-25T20:05:49.600Z,69.70
2018-02-25T20:07:28.174Z,69.10
2018-02-25T20:09:06.826Z,69.10
2018-02-25T20:10:44.657Z,68.00
2018-02-25T20:12:22.769Z,67.70
2018-02-25T20:14:00.609Z,67.70
2018-02-25T20:15:40.638Z,69.00
2018-02-25T20:17:18.466Z,69.00
2018-02-25T20:18:57.459Z,68.60
2018-02-25T20:20:35.128Z,68.60
2018-02-25T20:22:13.782Z,66.80
2018-02-25T20:23:51.570Z,66.80
2018-02-25T20:25:30.202Z,65.60
2018-02-25T20:27:07.752Z,66.30
2018-02-25T20:28:46.147Z,67.30
2018-02-25T20:32:19.074Z,67.80
2018-02-25T20:33:57.860Z,68.30
2018-02-25T20:35:35.429Z,68.60
2018-02-25T20:37:14.280Z,68.00
2018-02-25T20:38:52.533Z,68.60
2018-02-25T20:40:30.060Z,68.60
2018-02-25T20:42:07.554Z,69.00
2018-02-25T20:43:53.491Z,69.20
2018-02-25T20:45:33.049Z,69.30
2018-02-25T20:47:10.773Z,69.10
2018-02-25T20:48:48.278Z,68.60
2018-02-25T20:50:27.061Z,69.20
2018-02-25T20:52:04.667Z,69.20
2018-02-25T20:53:42.344Z,69.70
2018-02-25T20:55:22.243Z,70.00
2018-02-25T20:56:59.879Z,70.40
2018-02-25T20:58:37.966Z,70.20
2018-02-25T21:00:16.643Z,70.10
2018-02-25T21:01:55.057Z,70.70
2018-02-25T21:03:40.039Z,71.10
2018-02-25T21:05:23.191Z,70.90
2018-02-25T21:07:04.159Z,71.10
2018-02-25T21:08:45.480Z,71.70
2018-02-25T21:10:27.389Z,70.90
2018-02-25T21:12:11.001Z,70.70
2018-02-25T21:13:50.049Z,70.80
2018-02-25T21:15:29.948Z,70.50
2018-02-25T21:17:07.439Z,70.80